Weather at Bario Airport

Public forecast

Using degrees Celsius for public forecast. Weather courtesy of forecast.io.

Closest aviation weather report (METAR) to Bario Airport

Closest report is Brunei International Airport, 79.8 nm (147.8 km) NNW. Retrieved 2021/10/22 08:00 UTC (17 minutes ago):

WBSB 220800Z 31008KT 9999 FEW015 FEW016CB BKN300 31/26 Q1010 NOSIG

Closest aviation forecast (TAF) to Bario Airport

Closest forecast is Brunei International Airport, 79.8 nm (147.8 km) NNW. Retrieved 2021/10/22 06:12 UTC (2 hours ago):

TAF WBSB 220450Z 2206/2312 28010KT 9999 SCT015 FEW016CB TEMPO 2209/2212 7000 SHRA TSRA BECMG 2212/2214 20003KT SCT014 FEW015CB